Athens, Indiana
Current Conditions -  °F | °C
As of 7:35 PM on Sunday 25 Jan 2015 (Local Time) from KRCR Reporting Station
Light Snow Light Snow  
Wind Chill: 19°   Ceiling: 4100
Heat Index: 28°   Visibility: 7mi
Dew Point: 27°   Wind: 10mph
Humidity: 93%   Direction: 40°NE
Pressure: 29.87"   Gusts: 20mph
Location:  41.05°N, 86.13°W
Report Text: KRCR 260035Z AUTO 04009G17KT 7SM -SN SCT005 SCT014 BKN041 M02/M03 A2987 RMK AO2
Loading
Personal Weather Stations






























Interactive Weather Map New forecast layout! Learn more

10-Day Weather Forecast

Advertisements
Track Severe Weather on mobile